sensor_id;sensor_type;location;lat;lon;timestamp;temperature;humidity
10051;DHT22;5065;46.942;7.432;2023-09-30T00:00:47;20.60;99.90
10051;DHT22;5065;46.942;7.432;2023-09-30T00:03:14;20.60;99.90
10051;DHT22;5065;46.942;7.432;2023-09-30T00:05:41;20.60;99.90
10051;DHT22;5065;46.942;7.432;2023-09-30T00:08:09;20.60;99.90
10051;DHT22;5065;46.942;7.432;2023-09-30T00:10:36;20.60;99.90
10051;DHT22;5065;46.942;7.432;2023-09-30T00:13:04;20.60;99.90
10051;DHT22;5065;46.942;7.432;2023-09-30T00:15:32;20.50;99.90
10051;DHT22;5065;46.942;7.432;2023-09-30T00:17:59;20.60;99.90
10051;DHT22;5065;46.942;7.432;2023-09-30T00:20:27;20.60;99.90
10051;DHT22;5065;46.942;7.432;2023-09-30T00:22:54;20.60;99.90
10051;DHT22;5065;46.942;7.432;2023-09-30T00:25:22;20.60;99.90
10051;DHT22;5065;46.942;7.432;2023-09-30T00:27:49;20.60;99.90
10051;DHT22;5065;46.942;7.432;2023-09-30T00:30:16;20.60;99.90
10051;DHT22;5065;46.942;7.432;2023-09-30T00:32:43;20.60;99.90
10051;DHT22;5065;46.942;7.432;2023-09-30T00:35:11;20.50;99.90
10051;DHT22;5065;46.942;7.432;2023-09-30T00:37:38;20.60;99.90
10051;DHT22;5065;46.942;7.432;2023-09-30T00:40:06;20.60;99.90
10051;DHT22;5065;46.942;7.432;2023-09-30T00:42:39;20.50;99.90
10051;DHT22;5065;46.942;7.432;2023-09-30T00:45:07;20.50;99.90
10051;DHT22;5065;46.942;7.432;2023-09-30T00:47:36;20.50;99.90
10051;DHT22;5065;46.942;7.432;2023-09-30T00:50:04;20.50;99.90
10051;DHT22;5065;46.942;7.432;2023-09-30T00:52:35;20.50;99.90
10051;DHT22;5065;46.942;7.432;2023-09-30T00:55:02;20.40;99.90
10051;DHT22;5065;46.942;7.432;2023-09-30T00:57:31;20.50;99.90
10051;DHT22;5065;46.942;7.432;2023-09-30T01:00:02;20.40;99.90
10051;DHT22;5065;46.942;7.432;2023-09-30T01:02:30;20.40;99.90
10051;DHT22;5065;46.942;7.432;2023-09-30T01:04:57;20.40;99.90
10051;DHT22;5065;46.942;7.432;2023-09-30T01:07:25;20.40;99.90
10051;DHT22;5065;46.942;7.432;2023-09-30T01:09:52;20.40;99.90
10051;DHT22;5065;46.942;7.432;2023-09-30T01:12:19;20.40;99.90
10051;DHT22;5065;46.942;7.432;2023-09-30T01:14:46;20.40;99.90
10051;DHT22;5065;46.942;7.432;2023-09-30T01:17:15;20.40;99.90
10051;DHT22;5065;46.942;7.432;2023-09-30T01:19:44;20.40;99.90
10051;DHT22;5065;46.942;7.432;2023-09-30T01:22:12;20.50;99.90
10051;DHT22;5065;46.942;7.432;2023-09-30T01:24:40;20.40;99.90
10051;DHT22;5065;46.942;7.432;2023-09-30T01:27:07;20.40;99.90
10051;DHT22;5065;46.942;7.432;2023-09-30T01:29:34;20.40;99.90
10051;DHT22;5065;46.942;7.432;2023-09-30T01:32:04;20.40;99.90
10051;DHT22;5065;46.942;7.432;2023-09-30T01:34:33;20.40;99.90
10051;DHT22;5065;46.942;7.432;2023-09-30T01:37:00;20.40;99.90
10051;DHT22;5065;46.942;7.432;2023-09-30T01:39:29;20.30;99.90
10051;DHT22;5065;46.942;7.432;2023-09-30T01:41:56;20.30;99.90
10051;DHT22;5065;46.942;7.432;2023-09-30T01:44:23;20.40;99.90
10051;DHT22;5065;46.942;7.432;2023-09-30T01:46:51;20.30;99.90
10051;DHT22;5065;46.942;7.432;2023-09-30T01:49:18;20.30;99.90
10051;DHT22;5065;46.942;7.432;2023-09-30T01:51:45;20.30;99.90
10051;DHT22;5065;46.942;7.432;2023-09-30T01:54:12;20.30;99.90
10051;DHT22;5065;46.942;7.432;2023-09-30T01:56:41;20.30;99.90
10051;DHT22;5065;46.942;7.432;2023-09-30T01:59:08;20.30;99.90
10051;DHT22;5065;46.942;7.432;2023-09-30T02:01:35;20.30;99.90
10051;DHT22;5065;46.942;7.432;2023-09-30T02:04:02;20.30;99.90
10051;DHT22;5065;46.942;7.432;2023-09-30T02:06:31;20.30;99.90
10051;DHT22;5065;46.942;7.432;2023-09-30T02:08:58;20.30;99.90
10051;DHT22;5065;46.942;7.432;2023-09-30T02:11:25;20.30;99.90
10051;DHT22;5065;46.942;7.432;2023-09-30T02:13:54;20.30;99.90
10051;DHT22;5065;46.942;7.432;2023-09-30T02:16:22;20.30;99.90
10051;DHT22;5065;46.942;7.432;2023-09-30T02:18:50;20.20;99.90
10051;DHT22;5065;46.942;7.432;2023-09-30T02:21:18;20.30;99.90
10051;DHT22;5065;46.942;7.432;2023-09-30T02:23:45;20.20;99.90
10051;DHT22;5065;46.942;7.432;2023-09-30T02:26:13;20.20;99.90
10051;DHT22;5065;46.942;7.432;2023-09-30T02:28:41;20.30;99.90
10051;DHT22;5065;46.942;7.432;2023-09-30T02:31:09;20.20;99.90
10051;DHT22;5065;46.942;7.432;2023-09-30T02:33:37;20.20;99.90
10051;DHT22;5065;46.942;7.432;2023-09-30T02:36:07;20.20;99.90
10051;DHT22;5065;46.942;7.432;2023-09-30T02:38:35;20.20;99.90
10051;DHT22;5065;46.942;7.432;2023-09-30T02:41:03;20.20;99.90
10051;DHT22;5065;46.942;7.432;2023-09-30T02:43:30;20.20;99.90
10051;DHT22;5065;46.942;7.432;2023-09-30T02:45:58;20.20;99.90
10051;DHT22;5065;46.942;7.432;2023-09-30T02:48:26;20.20;99.90
10051;DHT22;5065;46.942;7.432;2023-09-30T02:50:53;20.20;99.90
10051;DHT22;5065;46.942;7.432;2023-09-30T02:53:21;20.20;99.90
10051;DHT22;5065;46.942;7.432;2023-09-30T02:55:49;20.20;99.90
10051;DHT22;5065;46.942;7.432;2023-09-30T02:58:21;20.20;99.90
10051;DHT22;5065;46.942;7.432;2023-09-30T03:00:49;20.10;99.90
10051;DHT22;5065;46.942;7.432;2023-09-30T03:03:16;20.10;99.90
10051;DHT22;5065;46.942;7.432;2023-09-30T03:05:44;20.10;99.90
10051;DHT22;5065;46.942;7.432;2023-09-30T03:08:13;20.00;99.90
10051;DHT22;5065;46.942;7.432;2023-09-30T03:10:40;20.10;99.90
10051;DHT22;5065;46.942;7.432;2023-09-30T03:13:07;20.00;99.90
10051;DHT22;5065;46.942;7.432;2023-09-30T03:15:35;20.00;99.90
10051;DHT22;5065;46.942;7.432;2023-09-30T03:18:03;20.00;99.90
10051;DHT22;5065;46.942;7.432;2023-09-30T03:20:30;20.00;99.90
10051;DHT22;5065;46.942;7.432;2023-09-30T03:22:59;20.00;99.90
10051;DHT22;5065;46.942;7.432;2023-09-30T03:25:28;20.00;99.90
10051;DHT22;5065;46.942;7.432;2023-09-30T03:27:56;20.00;99.90
10051;DHT22;5065;46.942;7.432;2023-09-30T03:30:23;19.90;99.90
10051;DHT22;5065;46.942;7.432;2023-09-30T03:32:50;19.90;99.90
10051;DHT22;5065;46.942;7.432;2023-09-30T03:35:17;19.90;99.90
10051;DHT22;5065;46.942;7.432;2023-09-30T03:37:44;19.90;99.90
10051;DHT22;5065;46.942;7.432;2023-09-30T03:40:14;19.90;99.90
10051;DHT22;5065;46.942;7.432;2023-09-30T03:42:45;20.00;99.90
10051;DHT22;5065;46.942;7.432;2023-09-30T03:45:15;19.90;99.90
10051;DHT22;5065;46.942;7.432;2023-09-30T03:47:43;19.90;99.90
10051;DHT22;5065;46.942;7.432;2023-09-30T03:50:11;19.90;99.90
10051;DHT22;5065;46.942;7.432;2023-09-30T03:52:41;19.90;99.90
10051;DHT22;5065;46.942;7.432;2023-09-30T03:55:10;19.90;99.90
10051;DHT22;5065;46.942;7.432;2023-09-30T03:57:39;19.90;99.90
10051;DHT22;5065;46.942;7.432;2023-09-30T04:00:07;19.80;99.90
10051;DHT22;5065;46.942;7.432;2023-09-30T04:02:37;19.80;99.90
10051;DHT22;5065;46.942;7.432;2023-09-30T04:05:04;19.80;99.90
10051;DHT22;5065;46.942;7.432;2023-09-30T04:07:32;19.80;99.90
10051;DHT22;5065;46.942;7.432;2023-09-30T04:10:02;19.80;99.90
10051;DHT22;5065;46.942;7.432;2023-09-30T04:12:30;19.80;99.90
10051;DHT22;5065;46.942;7.432;2023-09-30T04:15:00;19.80;99.90
10051;DHT22;5065;46.942;7.432;2023-09-30T04:17:30;19.80;99.90
10051;DHT22;5065;46.942;7.432;2023-09-30T04:19:58;19.70;99.90
10051;DHT22;5065;46.942;7.432;2023-09-30T04:22:25;19.70;99.90
10051;DHT22;5065;46.942;7.432;2023-09-30T04:24:55;19.70;99.90
10051;DHT22;5065;46.942;7.432;2023-09-30T04:27:22;19.80;99.90
10051;DHT22;5065;46.942;7.432;2023-09-30T04:29:49;19.70;99.90
10051;DHT22;5065;46.942;7.432;2023-09-30T04:32:18;19.70;99.90
10051;DHT22;5065;46.942;7.432;2023-09-30T04:34:46;19.70;99.90
10051;DHT22;5065;46.942;7.432;2023-09-30T04:37:13;19.70;99.90
10051;DHT22;5065;46.942;7.432;2023-09-30T04:39:41;19.70;99.90
10051;DHT22;5065;46.942;7.432;2023-09-30T04:42:08;19.70;99.90
10051;DHT22;5065;46.942;7.432;2023-09-30T04:44:36;19.70;99.90
10051;DHT22;5065;46.942;7.432;2023-09-30T04:47:04;19.70;99.90
10051;DHT22;5065;46.942;7.432;2023-09-30T04:49:33;19.70;99.90
10051;DHT22;5065;46.942;7.432;2023-09-30T04:52:01;19.70;99.90
10051;DHT22;5065;46.942;7.432;2023-09-30T04:54:28;19.60;99.90
10051;DHT22;5065;46.942;7.432;2023-09-30T04:56:56;19.70;99.90
10051;DHT22;5065;46.942;7.432;2023-09-30T04:59:23;19.70;99.90
10051;DHT22;5065;46.942;7.432;2023-09-30T05:01:50;19.70;99.90
10051;DHT22;5065;46.942;7.432;2023-09-30T05:04:18;19.70;99.90
10051;DHT22;5065;46.942;7.432;2023-09-30T05:06:47;19.70;99.90
10051;DHT22;5065;46.942;7.432;2023-09-30T05:09:14;19.60;99.90
10051;DHT22;5065;46.942;7.432;2023-09-30T05:11:41;19.60;99.90
10051;DHT22;5065;46.942;7.432;2023-09-30T05:14:09;19.70;99.90
10051;DHT22;5065;46.942;7.432;2023-09-30T05:16:36;19.60;99.90
10051;DHT22;5065;46.942;7.432;2023-09-30T05:19:03;19.50;99.90
10051;DHT22;5065;46.942;7.432;2023-09-30T05:21:30;19.60;99.90
10051;DHT22;5065;46.942;7.432;2023-09-30T05:24:01;19.60;99.90
10051;DHT22;5065;46.942;7.432;2023-09-30T05:26:28;19.60;99.90
10051;DHT22;5065;46.942;7.432;2023-09-30T05:28:55;19.50;99.90
10051;DHT22;5065;46.942;7.432;2023-09-30T05:31:21;19.50;99.90
10051;DHT22;5065;46.942;7.432;2023-09-30T05:33:48;19.50;99.90
10051;DHT22;5065;46.942;7.432;2023-09-30T05:36:16;19.50;99.90
10051;DHT22;5065;46.942;7.432;2023-09-30T05:38:43;19.50;99.90
10051;DHT22;5065;46.942;7.432;2023-09-30T05:41:11;19.50;99.90
10051;DHT22;5065;46.942;7.432;2023-09-30T05:43:39;19.60;99.90
10051;DHT22;5065;46.942;7.432;2023-09-30T05:46:09;19.60;99.90
10051;DHT22;5065;46.942;7.432;2023-09-30T05:48:37;19.60;99.90
10051;DHT22;5065;46.942;7.432;2023-09-30T05:51:05;19.50;99.90
10051;DHT22;5065;46.942;7.432;2023-09-30T05:53:32;19.50;99.90
10051;DHT22;5065;46.942;7.432;2023-09-30T05:55:59;19.50;99.90
10051;DHT22;5065;46.942;7.432;2023-09-30T05:58:28;19.60;99.90
10051;DHT22;5065;46.942;7.432;2023-09-30T06:00:55;19.50;99.90
10051;DHT22;5065;46.942;7.432;2023-09-30T06:03:22;19.50;99.90
10051;DHT22;5065;46.942;7.432;2023-09-30T06:05:49;19.50;99.90
10051;DHT22;5065;46.942;7.432;2023-09-30T06:08:16;19.40;99.90
10051;DHT22;5065;46.942;7.432;2023-09-30T06:10:43;19.50;99.90
10051;DHT22;5065;46.942;7.432;2023-09-30T06:13:12;19.50;99.90
10051;DHT22;5065;46.942;7.432;2023-09-30T06:15:42;19.50;99.90
10051;DHT22;5065;46.942;7.432;2023-09-30T06:18:09;19.50;99.90
10051;DHT22;5065;46.942;7.432;2023-09-30T06:20:39;19.50;99.90
10051;DHT22;5065;46.942;7.432;2023-09-30T06:23:07;19.50;99.90
10051;DHT22;5065;46.942;7.432;2023-09-30T06:25:35;19.50;99.90
10051;DHT22;5065;46.942;7.432;2023-09-30T06:28:03;19.50;99.90
10051;DHT22;5065;46.942;7.432;2023-09-30T06:30:30;19.50;99.90
10051;DHT22;5065;46.942;7.432;2023-09-30T06:33:01;19.60;99.90
10051;DHT22;5065;46.942;7.432;2023-09-30T06:35:30;19.50;99.90
10051;DHT22;5065;46.942;7.432;2023-09-30T06:38:03;19.60;99.90
10051;DHT22;5065;46.942;7.432;2023-09-30T06:40:32;19.50;99.90
10051;DHT22;5065;46.942;7.432;2023-09-30T06:42:59;19.50;99.90
10051;DHT22;5065;46.942;7.432;2023-09-30T06:45:27;19.50;99.90
10051;DHT22;5065;46.942;7.432;2023-09-30T06:47:54;19.50;99.90
10051;DHT22;5065;46.942;7.432;2023-09-30T06:50:22;19.50;99.90
10051;DHT22;5065;46.942;7.432;2023-09-30T06:52:49;19.50;99.90
10051;DHT22;5065;46.942;7.432;2023-09-30T06:55:17;19.50;99.90
10051;DHT22;5065;46.942;7.432;2023-09-30T06:57:44;19.50;99.90
10051;DHT22;5065;46.942;7.432;2023-09-30T07:00:13;19.60;99.90
10051;DHT22;5065;46.942;7.432;2023-09-30T07:02:40;19.60;99.90
10051;DHT22;5065;46.942;7.432;2023-09-30T07:05:08;19.60;99.90
10051;DHT22;5065;46.942;7.432;2023-09-30T07:07:37;19.60;99.90
10051;DHT22;5065;46.942;7.432;2023-09-30T07:10:06;19.60;99.90
10051;DHT22;5065;46.942;7.432;2023-09-30T07:12:33;19.60;99.90
10051;DHT22;5065;46.942;7.432;2023-09-30T07:15:01;19.60;99.90
10051;DHT22;5065;46.942;7.432;2023-09-30T07:17:29;19.60;99.90
10051;DHT22;5065;46.942;7.432;2023-09-30T07:19:56;19.60;99.90
10051;DHT22;5065;46.942;7.432;2023-09-30T07:22:23;19.60;99.90
10051;DHT22;5065;46.942;7.432;2023-09-30T07:24:52;19.60;99.90
10051;DHT22;5065;46.942;7.432;2023-09-30T07:27:19;19.60;99.90
10051;DHT22;5065;46.942;7.432;2023-09-30T07:29:46;19.60;99.90
10051;DHT22;5065;46.942;7.432;2023-09-30T07:32:13;19.60;99.90
10051;DHT22;5065;46.942;7.432;2023-09-30T07:34:41;19.70;99.90
10051;DHT22;5065;46.942;7.432;2023-09-30T07:37:08;19.60;99.90
10051;DHT22;5065;46.942;7.432;2023-09-30T07:39:36;19.70;99.90
10051;DHT22;5065;46.942;7.432;2023-09-30T07:42:04;19.80;99.90
10051;DHT22;5065;46.942;7.432;2023-09-30T07:44:32;20.00;99.90
10051;DHT22;5065;46.942;7.432;2023-09-30T07:46:59;20.30;99.90
10051;DHT22;5065;46.942;7.432;2023-09-30T07:49:26;20.70;99.90
10051;DHT22;5065;46.942;7.432;2023-09-30T07:51:53;21.00;99.90
10051;DHT22;5065;46.942;7.432;2023-09-30T07:54:20;21.30;99.90
10051;DHT22;5065;46.942;7.432;2023-09-30T07:56:47;21.40;99.90
10051;DHT22;5065;46.942;7.432;2023-09-30T07:59:16;21.40;99.90
10051;DHT22;5065;46.942;7.432;2023-09-30T08:01:43;21.40;99.90
10051;DHT22;5065;46.942;7.432;2023-09-30T08:04:10;21.50;99.90
10051;DHT22;5065;46.942;7.432;2023-09-30T08:06:37;21.50;99.90
10051;DHT22;5065;46.942;7.432;2023-09-30T08:09:05;21.60;99.90
10051;DHT22;5065;46.942;7.432;2023-09-30T08:11:35;21.60;99.90
10051;DHT22;5065;46.942;7.432;2023-09-30T08:14:02;21.60;99.90
10051;DHT22;5065;46.942;7.432;2023-09-30T08:16:33;21.60;99.90
10051;DHT22;5065;46.942;7.432;2023-09-30T08:19:00;21.50;99.90
10051;DHT22;5065;46.942;7.432;2023-09-30T08:21:27;21.50;99.90
10051;DHT22;5065;46.942;7.432;2023-09-30T08:23:54;21.50;99.90
10051;DHT22;5065;46.942;7.432;2023-09-30T08:26:22;21.50;99.90
10051;DHT22;5065;46.942;7.432;2023-09-30T08:28:49;21.50;99.90
10051;DHT22;5065;46.942;7.432;2023-09-30T08:31:15;21.70;99.90
10051;DHT22;5065;46.942;7.432;2023-09-30T08:33:44;21.80;99.90
10051;DHT22;5065;46.942;7.432;2023-09-30T08:36:11;22.00;99.90
10051;DHT22;5065;46.942;7.432;2023-09-30T08:38:39;22.20;99.90
10051;DHT22;5065;46.942;7.432;2023-09-30T08:41:06;22.30;99.90
10051;DHT22;5065;46.942;7.432;2023-09-30T08:43:34;22.40;99.90
10051;DHT22;5065;46.942;7.432;2023-09-30T08:46:04;22.40;99.90
10051;DHT22;5065;46.942;7.432;2023-09-30T08:48:31;22.40;99.90
10051;DHT22;5065;46.942;7.432;2023-09-30T08:51:00;22.40;99.90
10051;DHT22;5065;46.942;7.432;2023-09-30T08:53:28;22.50;99.90
10051;DHT22;5065;46.942;7.432;2023-09-30T08:55:55;22.70;99.90
10051;DHT22;5065;46.942;7.432;2023-09-30T08:58:24;22.80;99.90
10051;DHT22;5065;46.942;7.432;2023-09-30T09:00:52;22.90;99.90
10051;DHT22;5065;46.942;7.432;2023-09-30T09:03:19;22.80;99.90
10051;DHT22;5065;46.942;7.432;2023-09-30T09:05:46;22.70;99.90
10051;DHT22;5065;46.942;7.432;2023-09-30T09:08:15;22.80;99.90
10051;DHT22;5065;46.942;7.432;2023-09-30T09:10:53;22.80;99.90
10051;DHT22;5065;46.942;7.432;2023-09-30T09:13:20;22.90;99.90
10051;DHT22;5065;46.942;7.432;2023-09-30T09:15:47;22.90;99.90
10051;DHT22;5065;46.942;7.432;2023-09-30T09:18:15;23.00;99.90
10051;DHT22;5065;46.942;7.432;2023-09-30T09:21:07;23.10;99.90
10051;DHT22;5065;46.942;7.432;2023-09-30T09:23:39;23.20;99.90
10051;DHT22;5065;46.942;7.432;2023-09-30T09:26:06;23.30;99.90
10051;DHT22;5065;46.942;7.432;2023-09-30T09:28:36;23.40;99.90
10051;DHT22;5065;46.942;7.432;2023-09-30T09:31:19;23.40;99.90
10051;DHT22;5065;46.942;7.432;2023-09-30T09:33:46;23.50;99.90
10051;DHT22;5065;46.942;7.432;2023-09-30T09:36:14;23.50;99.90
10051;DHT22;5065;46.942;7.432;2023-09-30T09:38:45;23.60;99.90
10051;DHT22;5065;46.942;7.432;2023-09-30T09:41:13;23.60;99.90
10051;DHT22;5065;46.942;7.432;2023-09-30T09:43:41;23.60;99.90
10051;DHT22;5065;46.942;7.432;2023-09-30T09:46:08;23.60;99.90
10051;DHT22;5065;46.942;7.432;2023-09-30T09:48:35;23.60;99.90
10051;DHT22;5065;46.942;7.432;2023-09-30T09:51:02;23.60;99.90
10051;DHT22;5065;46.942;7.432;2023-09-30T09:53:30;23.60;99.90
10051;DHT22;5065;46.942;7.432;2023-09-30T09:56:03;23.60;99.90
10051;DHT22;5065;46.942;7.432;2023-09-30T09:58:33;23.60;99.90
10051;DHT22;5065;46.942;7.432;2023-09-30T10:01:00;23.70;99.90
10051;DHT22;5065;46.942;7.432;2023-09-30T10:03:27;23.70;99.90
10051;DHT22;5065;46.942;7.432;2023-09-30T10:05:54;23.70;99.90
10051;DHT22;5065;46.942;7.432;2023-09-30T10:08:21;23.70;99.90
10051;DHT22;5065;46.942;7.432;2023-09-30T10:10:55;23.70;99.90
10051;DHT22;5065;46.942;7.432;2023-09-30T10:16:10;23.80;99.90
10051;DHT22;5065;46.942;7.432;2023-09-30T10:19:09;23.90;99.90
10051;DHT22;5065;46.942;7.432;2023-09-30T10:21:36;24.00;99.90
10051;DHT22;5065;46.942;7.432;2023-09-30T10:26:50;24.00;99.90
10051;DHT22;5065;46.942;7.432;2023-09-30T10:29:39;23.90;99.90
10051;DHT22;5065;46.942;7.432;2023-09-30T10:32:08;23.90;99.90
10051;DHT22;5065;46.942;7.432;2023-09-30T10:34:35;23.90;99.90
10051;DHT22;5065;46.942;7.432;2023-09-30T10:39:53;24.00;99.90
10051;DHT22;5065;46.942;7.432;2023-09-30T10:45:06;24.00;99.90
10051;DHT22;5065;46.942;7.432;2023-09-30T10:47:35;24.00;99.90
10051;DHT22;5065;46.942;7.432;2023-09-30T10:50:02;24.00;99.90
10051;DHT22;5065;46.942;7.432;2023-09-30T10:52:32;24.00;99.90
10051;DHT22;5065;46.942;7.432;2023-09-30T10:55:02;24.00;99.90
10051;DHT22;5065;46.942;7.432;2023-09-30T10:57:30;24.00;99.90
10051;DHT22;5065;46.942;7.432;2023-09-30T11:00:09;24.10;99.90
10051;DHT22;5065;46.942;7.432;2023-09-30T11:02:49;24.20;99.90
10051;DHT22;5065;46.942;7.432;2023-09-30T11:05:17;24.20;99.90
10051;DHT22;5065;46.942;7.432;2023-09-30T11:07:44;24.10;99.90
10051;DHT22;5065;46.942;7.432;2023-09-30T11:10:14;24.10;99.90
10051;DHT22;5065;46.942;7.432;2023-09-30T11:12:52;24.10;99.90
10051;DHT22;5065;46.942;7.432;2023-09-30T11:15:19;24.20;99.90
10051;DHT22;5065;46.942;7.432;2023-09-30T11:17:46;24.20;99.90
10051;DHT22;5065;46.942;7.432;2023-09-30T11:20:15;24.30;99.90
10051;DHT22;5065;46.942;7.432;2023-09-30T11:22:42;24.10;99.90
10051;DHT22;5065;46.942;7.432;2023-09-30T11:25:14;24.10;99.90
10051;DHT22;5065;46.942;7.432;2023-09-30T11:27:41;24.10;99.90
10051;DHT22;5065;46.942;7.432;2023-09-30T11:30:09;24.10;99.90
10051;DHT22;5065;46.942;7.432;2023-09-30T11:32:37;24.20;99.90
10051;DHT22;5065;46.942;7.432;2023-09-30T11:35:08;24.20;99.90
10051;DHT22;5065;46.942;7.432;2023-09-30T11:37:36;24.20;99.90
10051;DHT22;5065;46.942;7.432;2023-09-30T11:40:10;24.20;99.90
10051;DHT22;5065;46.942;7.432;2023-09-30T11:42:37;24.20;99.90
10051;DHT22;5065;46.942;7.432;2023-09-30T11:45:17;24.20;99.90
10051;DHT22;5065;46.942;7.432;2023-09-30T11:47:44;24.10;99.90
10051;DHT22;5065;46.942;7.432;2023-09-30T11:50:11;24.10;99.90
10051;DHT22;5065;46.942;7.432;2023-09-30T11:52:40;24.00;99.90
10051;DHT22;5065;46.942;7.432;2023-09-30T11:55:11;24.10;99.90
10051;DHT22;5065;46.942;7.432;2023-09-30T11:57:39;24.00;99.90
10051;DHT22;5065;46.942;7.432;2023-09-30T12:00:06;24.00;99.90
10051;DHT22;5065;46.942;7.432;2023-09-30T12:02:39;24.10;99.90
10051;DHT22;5065;46.942;7.432;2023-09-30T12:05:07;24.00;99.90
10051;DHT22;5065;46.942;7.432;2023-09-30T12:07:37;24.00;99.90
10051;DHT22;5065;46.942;7.432;2023-09-30T12:10:05;24.00;99.90
10051;DHT22;5065;46.942;7.432;2023-09-30T12:12:32;24.00;99.90
10051;DHT22;5065;46.942;7.432;2023-09-30T12:14:59;24.00;99.90
10051;DHT22;5065;46.942;7.432;2023-09-30T12:17:27;24.10;99.90
10051;DHT22;5065;46.942;7.432;2023-09-30T12:19:54;24.00;99.90
10051;DHT22;5065;46.942;7.432;2023-09-30T12:22:21;24.10;99.90
10051;DHT22;5065;46.942;7.432;2023-09-30T12:24:48;24.10;99.90
10051;DHT22;5065;46.942;7.432;2023-09-30T12:27:16;24.10;99.90
10051;DHT22;5065;46.942;7.432;2023-09-30T12:29:43;24.10;99.90
10051;DHT22;5065;46.942;7.432;2023-09-30T12:32:11;24.00;99.90
10051;DHT22;5065;46.942;7.432;2023-09-30T12:34:38;24.00;99.90
10051;DHT22;5065;46.942;7.432;2023-09-30T12:37:05;24.00;99.90
10051;DHT22;5065;46.942;7.432;2023-09-30T12:39:32;24.00;99.90
10051;DHT22;5065;46.942;7.432;2023-09-30T12:42:00;24.00;99.90
10051;DHT22;5065;46.942;7.432;2023-09-30T12:44:28;24.00;99.90
10051;DHT22;5065;46.942;7.432;2023-09-30T12:46:56;24.00;99.90
10051;DHT22;5065;46.942;7.432;2023-09-30T12:49:23;24.10;99.90
10051;DHT22;5065;46.942;7.432;2023-09-30T12:51:51;24.10;99.90
10051;DHT22;5065;46.942;7.432;2023-09-30T12:54:19;24.10;99.90
10051;DHT22;5065;46.942;7.432;2023-09-30T12:56:46;24.20;99.90
10051;DHT22;5065;46.942;7.432;2023-09-30T12:59:13;24.10;99.90
10051;DHT22;5065;46.942;7.432;2023-09-30T13:01:42;24.20;99.90
10051;DHT22;5065;46.942;7.432;2023-09-30T13:04:08;24.20;99.90
10051;DHT22;5065;46.942;7.432;2023-09-30T13:06:36;24.10;99.90
10051;DHT22;5065;46.942;7.432;2023-09-30T13:09:03;24.10;99.90
10051;DHT22;5065;46.942;7.432;2023-09-30T13:11:30;24.10;99.90
10051;DHT22;5065;46.942;7.432;2023-09-30T13:13:57;24.10;99.90
10051;DHT22;5065;46.942;7.432;2023-09-30T13:16:24;24.10;99.90
10051;DHT22;5065;46.942;7.432;2023-09-30T13:18:52;24.00;99.90
10051;DHT22;5065;46.942;7.432;2023-09-30T13:21:19;24.00;99.90
10051;DHT22;5065;46.942;7.432;2023-09-30T13:23:46;23.90;99.90
10051;DHT22;5065;46.942;7.432;2023-09-30T13:26:12;23.90;99.90
10051;DHT22;5065;46.942;7.432;2023-09-30T13:28:39;23.80;99.90
10051;DHT22;5065;46.942;7.432;2023-09-30T13:31:07;23.80;99.90
10051;DHT22;5065;46.942;7.432;2023-09-30T13:33:34;23.80;99.90
10051;DHT22;5065;46.942;7.432;2023-09-30T13:36:03;23.80;99.90
10051;DHT22;5065;46.942;7.432;2023-09-30T13:38:32;23.70;99.90
10051;DHT22;5065;46.942;7.432;2023-09-30T13:40:59;23.70;99.90
10051;DHT22;5065;46.942;7.432;2023-09-30T13:43:27;23.70;99.90
10051;DHT22;5065;46.942;7.432;2023-09-30T13:45:53;23.60;99.90
10051;DHT22;5065;46.942;7.432;2023-09-30T13:48:21;23.60;99.90
10051;DHT22;5065;46.942;7.432;2023-09-30T13:50:48;23.60;99.90
10051;DHT22;5065;46.942;7.432;2023-09-30T13:53:16;23.60;99.90
10051;DHT22;5065;46.942;7.432;2023-09-30T13:55:43;23.60;99.90
10051;DHT22;5065;46.942;7.432;2023-09-30T13:58:11;23.60;99.90
10051;DHT22;5065;46.942;7.432;2023-09-30T14:00:38;23.60;99.90
10051;DHT22;5065;46.942;7.432;2023-09-30T14:03:05;23.60;99.90
10051;DHT22;5065;46.942;7.432;2023-09-30T14:05:32;23.60;99.90
10051;DHT22;5065;46.942;7.432;2023-09-30T14:07:59;23.60;99.90
10051;DHT22;5065;46.942;7.432;2023-09-30T14:10:28;23.60;99.90
10051;DHT22;5065;46.942;7.432;2023-09-30T14:12:55;23.60;99.90
10051;DHT22;5065;46.942;7.432;2023-09-30T14:15:23;23.60;99.90
10051;DHT22;5065;46.942;7.432;2023-09-30T14:17:53;23.60;99.90
10051;DHT22;5065;46.942;7.432;2023-09-30T14:20:20;23.60;99.90
10051;DHT22;5065;46.942;7.432;2023-09-30T14:22:48;23.50;99.90
10051;DHT22;5065;46.942;7.432;2023-09-30T14:25:16;23.60;99.90
10051;DHT22;5065;46.942;7.432;2023-09-30T14:27:45;23.60;99.90
10051;DHT22;5065;46.942;7.432;2023-09-30T14:30:12;23.50;99.90
10051;DHT22;5065;46.942;7.432;2023-09-30T14:32:39;23.50;99.90
10051;DHT22;5065;46.942;7.432;2023-09-30T14:35:06;23.50;99.90
10051;DHT22;5065;46.942;7.432;2023-09-30T14:37:34;23.50;99.90
10051;DHT22;5065;46.942;7.432;2023-09-30T14:40:01;23.50;99.90
10051;DHT22;5065;46.942;7.432;2023-09-30T14:42:30;23.50;99.90
10051;DHT22;5065;46.942;7.432;2023-09-30T14:44:58;23.50;99.90
10051;DHT22;5065;46.942;7.432;2023-09-30T14:47:25;23.50;99.90
10051;DHT22;5065;46.942;7.432;2023-09-30T14:49:52;23.50;99.90
10051;DHT22;5065;46.942;7.432;2023-09-30T14:52:19;23.60;99.90
10051;DHT22;5065;46.942;7.432;2023-09-30T14:54:46;23.50;99.90
10051;DHT22;5065;46.942;7.432;2023-09-30T14:57:13;23.60;99.90
10051;DHT22;5065;46.942;7.432;2023-09-30T14:59:41;23.50;99.90
10051;DHT22;5065;46.942;7.432;2023-09-30T15:02:09;23.60;99.90
10051;DHT22;5065;46.942;7.432;2023-09-30T15:04:36;23.50;99.90
10051;DHT22;5065;46.942;7.432;2023-09-30T15:07:03;23.50;99.90
10051;DHT22;5065;46.942;7.432;2023-09-30T15:09:30;23.50;99.90
10051;DHT22;5065;46.942;7.432;2023-09-30T15:11:57;23.50;99.90
10051;DHT22;5065;46.942;7.432;2023-09-30T15:14:24;23.50;99.90
10051;DHT22;5065;46.942;7.432;2023-09-30T15:16:51;23.50;99.90
10051;DHT22;5065;46.942;7.432;2023-09-30T15:19:19;23.50;99.90
10051;DHT22;5065;46.942;7.432;2023-09-30T15:21:46;23.40;99.90
10051;DHT22;5065;46.942;7.432;2023-09-30T15:24:13;23.40;99.90
10051;DHT22;5065;46.942;7.432;2023-09-30T15:26:39;23.40;99.90
10051;DHT22;5065;46.942;7.432;2023-09-30T15:29:07;23.40;99.90
10051;DHT22;5065;46.942;7.432;2023-09-30T15:31:33;23.40;99.90
10051;DHT22;5065;46.942;7.432;2023-09-30T15:34:00;23.40;99.90
10051;DHT22;5065;46.942;7.432;2023-09-30T15:36:29;23.30;99.90
10051;DHT22;5065;46.942;7.432;2023-09-30T15:38:56;23.30;99.90
10051;DHT22;5065;46.942;7.432;2023-09-30T15:41:24;23.30;99.90
10051;DHT22;5065;46.942;7.432;2023-09-30T15:43:51;23.20;99.90
10051;DHT22;5065;46.942;7.432;2023-09-30T15:46:18;23.30;99.90
10051;DHT22;5065;46.942;7.432;2023-09-30T15:48:45;23.30;99.90
10051;DHT22;5065;46.942;7.432;2023-09-30T15:51:12;23.20;99.90
10051;DHT22;5065;46.942;7.432;2023-09-30T15:53:41;23.30;99.90
10051;DHT22;5065;46.942;7.432;2023-09-30T15:56:08;23.20;99.90
10051;DHT22;5065;46.942;7.432;2023-09-30T15:58:35;23.30;99.90
10051;DHT22;5065;46.942;7.432;2023-09-30T16:01:02;23.30;99.90